Time;durP1;ratioP1;P1;durP2;ratioP2;P2;SDS_P1;SDS_P2;PMS_P1;PMS_P2;Temp;Humidity;BMP_temperature;BMP_pressure;BME280_temperature;BME280_humidity;BME280_pressure;Samples;Min_cycle;Max_cycle;Signal;HPM_P1;HPM_P2
2022/01/30 00:01:58;;;;;;;6.18;1.77;;;31.20;93.30;;;;;;5069689;28;20028;-77
2022/01/30 00:04:25;;;;;;;4.65;1.00;;;30.70;93.70;;;;;;5060353;28;20468;-76
2022/01/30 00:06:52;;;;;;;5.47;1.00;;;30.30;94.40;;;;;;5060081;28;20095;-77
2022/01/30 00:09:22;;;;;;;1.75;0.40;;;30.00;94.40;;;;;;5069080;28;20048;-78
2022/01/30 00:11:58;;;;;;;3.60;0.60;;;29.90;94.40;;;;;;5063554;28;20033;-77
2022/01/30 00:14:28;;;;;;;3.13;0.65;;;30.70;94.00;;;;;;5065730;28;20463;-77
2022/01/30 00:17:01;;;;;;;2.10;0.65;;;31.00;93.60;;;;;;5067054;28;20028;-77
2022/01/30 00:22:42;;;;;;;2.25;0.40;;;30.50;93.40;;;;;;5063722;28;20550;-78
2022/01/30 00:25:06;;;;;;;4.35;0.50;;;30.40;93.10;;;;;;5056038;28;20119;-76
2022/01/30 00:27:46;;;;;;;1.20;0.70;;;31.30;93.70;;;;;;5053028;28;20028;-76
2022/01/30 00:30:14;;;;;;;2.17;0.70;;;32.30;92.10;;;;;;5070167;28;20040;-75
2022/01/30 00:32:42;;;;;;;5.45;0.70;;;32.60;91.60;;;;;;5056825;28;20032;-77
2022/01/30 00:35:10;;;;;;;6.28;1.08;;;32.10;92.00;;;;;;5068603;28;20081;-75
2022/01/30 00:37:40;;;;;;;1.13;0.35;;;32.20;92.20;;;;;;5053959;28;20122;-76
2022/01/30 00:40:09;;;;;;;3.92;0.50;;;32.30;91.70;;;;;;5065112;28;20037;-75
2022/01/30 00:42:36;;;;;;;6.38;0.55;;;32.10;91.30;;;;;;5062930;28;20048;-77
2022/01/30 00:45:04;;;;;;;4.32;0.55;;;31.80;91.60;;;;;;5057452;28;20139;-76
2022/01/30 00:47:31;;;;;;;1.17;0.35;;;31.60;91.70;;;;;;5059937;28;20037;-76
2022/01/30 00:49:59;;;;;;;5.40;0.98;;;31.30;92.70;;;;;;5057826;28;20067;-78
2022/01/30 00:52:26;;;;;;;2.53;0.80;;;32.10;92.20;;;;;;5067030;28;20033;-77
2022/01/30 00:54:54;;;;;;;4.82;0.50;;;32.40;91.00;;;;;;5070378;28;20119;-75
2022/01/30 00:57:21;;;;;;;3.83;0.63;;;32.40;90.80;;;;;;5051200;28;20087;-75
2022/01/30 00:59:49;;;;;;;1.92;0.70;;;32.90;90.60;;;;;;5060220;28;20124;-77
2022/01/30 01:02:17;;;;;;;5.60;0.60;;;33.20;90.60;;;;;;5051246;28;20111;-76
2022/01/30 01:04:48;;;;;;;1.70;0.50;;;33.00;90.20;;;;;;5052644;28;20115;-77
2022/01/30 01:07:21;;;;;;;2.50;0.43;;;32.80;90.50;;;;;;5064592;28;20089;-77
2022/01/30 01:10:08;;;;;;;3.30;1.00;;;32.60;90.60;;;;;;5067236;28;20040;-76
2022/01/30 01:25:55;;;;;;;2.05;0.57;;;33.20;91.00;;;;;;5066282;28;20033;-76
2022/01/30 01:28:23;;;;;;;3.05;1.15;;;34.10;90.10;;;;;;5062316;28;20079;-76
2022/01/30 01:30:51;;;;;;;3.42;0.57;;;34.20;88.40;;;;;;5069231;28;20048;-77
2022/01/30 01:33:19;;;;;;;5.38;0.98;;;34.00;88.10;;;;;;5064449;28;20063;-77
2022/01/30 01:35:46;;;;;;;2.45;0.45;;;33.00;89.10;;;;;;5051122;28;20130;-77
2022/01/30 01:38:15;;;;;;;6.20;0.45;;;32.20;89.90;;;;;;5059377;28;20031;-76
2022/01/30 01:40:51;;;;;;;2.83;0.40;;;31.90;90.40;;;;;;5061804;28;20478;-77
2022/01/30 01:43:20;;;;;;;1.98;0.40;;;32.20;91.00;;;;;;5061214;28;20051;-74
2022/01/30 01:45:50;;;;;;;2.55;0.20;;;32.70;89.60;;;;;;5053668;28;20337;-76
2022/01/30 01:48:18;;;;;;;4.70;0.55;;;33.00;88.50;;;;;;5064900;28;20079;-76
2022/01/30 01:51:07;;;;;;;2.53;0.40;;;33.00;88.50;;;;;;5068660;28;20040;-76
2022/01/30 01:53:34;;;;;;;1.50;0.30;;;32.90;89.60;;;;;;5049119;28;20032;-76
2022/01/30 01:56:02;;;;;;;2.65;0.63;;;32.70;88.80;;;;;;5058307;28;20050;-77
2022/01/30 01:58:29;;;;;;;4.32;0.43;;;32.70;88.70;;;;;;5061456;28;20021;-76
2022/01/30 02:00:59;;;;;;;2.53;0.45;;;32.50;89.30;;;;;;5062775;28;20021;-76
2022/01/30 02:03:28;;;;;;;4.18;0.55;;;32.50;88.60;;;;;;5056119;28;20025;-75
2022/01/30 02:05:59;;;;;;;2.83;0.93;;;32.70;88.60;;;;;;5066934;28;20028;-77
2022/01/30 02:14:03;;;;;;;1.35;0.45;;;34.50;84.10;;;;;;5061044;28;20071;-76
2022/01/30 02:27:20;;;;;;;2.28;0.85;;;34.10;83.50;;;;;;5069629;28;20352;-77
2022/01/30 02:29:48;;;;;;;;;;;33.50;85.70;;;;;;5052761;28;20590;-75
2022/01/30 02:32:16;;;;;;;1.60;0.30;;;33.30;85.00;;;;;;5058097;28;20355;-75
2022/01/30 02:34:44;;;;;;;1.05;0.30;;;33.20;84.70;;;;;;5073200;28;20036;-74
2022/01/30 02:37:13;;;;;;;2.92;0.60;;;33.00;85.30;;;;;;5073836;28;20036;-76
2022/01/30 02:39:40;;;;;;;4.38;0.40;;;32.90;85.20;;;;;;5065151;28;20041;-76
2022/01/30 02:42:12;;;;;;;3.00;0.52;;;32.50;85.60;;;;;;5060739;28;20083;-76
2022/01/30 02:44:54;;;;;;;2.97;1.05;;;32.40;85.60;;;;;;5071293;28;20050;-76
2022/01/30 02:50:31;;;;;;;1.95;0.30;;;32.40;85.90;;;;;;5044885;28;20951;-75
2022/01/30 02:53:00;;;;;;;2.25;0.65;;;32.40;84.80;;;;;;5056504;28;20033;-77
2022/01/30 02:55:28;;;;;;;1.73;0.40;;;32.40;85.70;;;;;;5067238;28;20487;-76
2022/01/30 02:57:56;;;;;;;2.85;0.98;;;32.70;87.10;;;;;;5057780;28;20035;-76
2022/01/30 03:00:23;;;;;;;3.42;0.52;;;32.70;85.90;;;;;;5071282;28;20375;-74
2022/01/30 03:02:50;;;;;;;4.20;0.40;;;32.70;85.10;;;;;;5056956;28;20027;-75
2022/01/30 03:05:22;;;;;;;1.83;0.40;;;33.10;84.40;;;;;;5071053;28;20050;-75
2022/01/30 03:07:49;;;;;;;3.03;0.40;;;33.80;85.20;;;;;;5071339;28;20046;-77
2022/01/30 03:10:17;;;;;;;6.35;0.63;;;33.90;84.30;;;;;;5072636;28;20024;-77
2022/01/30 03:12:44;;;;;;;3.67;0.63;;;33.40;84.60;;;;;;5069354;28;20029;-75
2022/01/30 03:15:12;;;;;;;4.38;0.50;;;33.00;85.20;;;;;;5072599;28;20021;-79
2022/01/30 03:17:40;;;;;;;2.97;0.60;;;32.70;85.70;;;;;;5070393;28;20544;-77
2022/01/30 03:20:09;;;;;;;3.38;0.30;;;32.50;86.30;;;;;;5069966;28;20107;-77
2022/01/30 03:22:36;;;;;;;4.70;0.40;;;32.40;85.30;;;;;;5063368;28;20032;-77
2022/01/30 03:25:05;;;;;;;1.73;0.47;;;32.30;86.70;;;;;;5052751;28;20554;-74
2022/01/30 03:27:32;;;;;;;2.05;0.30;;;32.20;87.50;;;;;;5065868;28;20479;-76
2022/01/30 03:30:07;;;;;;;1.35;0.30;;;31.90;86.40;;;;;;5056548;28;20041;-77
2022/01/30 03:32:35;;;;;;;1.80;0.28;;;31.60;87.80;;;;;;5067279;28;20017;-75
2022/01/30 03:35:03;;;;;;;1.60;0.30;;;31.70;88.30;;;;;;5071164;28;20118;-75
2022/01/30 03:37:30;;;;;;;2.13;0.40;;;31.60;87.80;;;;;;5056960;28;20017;-77
2022/01/30 03:39:58;;;;;;;3.17;0.75;;;31.40;88.00;;;;;;5059965;28;20029;-76
2022/01/30 03:42:25;;;;;;;3.05;0.40;;;31.20;88.70;;;;;;5065526;28;20100;-77
2022/01/30 03:44:52;;;;;;;2.17;0.20;;;31.30;88.90;;;;;;5071535;28;20050;-77
2022/01/30 03:47:20;;;;;;;3.50;0.68;;;31.50;88.40;;;;;;5060267;28;20029;-78
2022/01/30 03:49:47;;;;;;;3.30;0.43;;;31.50;88.80;;;;;;5070219;28;20349;-77
2022/01/30 03:52:14;;;;;;;1.98;0.40;;;31.50;88.50;;;;;;5070342;28;20124;-77
2022/01/30 03:54:41;;;;;;;1.95;0.52;;;31.50;89.10;;;;;;5068466;28;20029;-78
2022/01/30 03:57:09;;;;;;;2.40;0.60;;;31.50;90.00;;;;;;5057585;28;20063;-78
2022/01/30 03:59:36;;;;;;;6.00;0.50;;;31.40;89.60;;;;;;5062591;28;20083;-80
2022/01/30 04:02:04;;;;;;;2.58;0.77;;;31.30;90.20;;;;;;5064345;28;20029;-79
2022/01/30 04:04:32;;;;;;;2.45;0.80;;;31.40;90.20;;;;;;5053336;28;20109;-77
2022/01/30 04:07:00;;;;;;;1.45;0.28;;;31.30;89.80;;;;;;5053754;28;20033;-77
2022/01/30 04:09:29;;;;;;;2.88;0.43;;;31.30;90.10;;;;;;5065190;28;20525;-78
2022/01/30 04:11:56;;;;;;;4.53;1.52;;;31.30;90.60;;;;;;5067288;28;20501;-79
2022/01/30 04:14:24;;;;;;;7.38;1.13;;;31.30;90.60;;;;;;5062278;28;20482;-78
2022/01/30 04:16:51;;;;;;;3.55;0.75;;;31.20;90.40;;;;;;5067105;28;20425;-77
2022/01/30 04:19:19;;;;;;;4.15;1.23;;;31.00;90.80;;;;;;5068345;28;20517;-78
2022/01/30 04:21:46;;;;;;;3.15;0.50;;;31.00;90.60;;;;;;5067219;28;20419;-79
2022/01/30 04:24:14;;;;;;;2.08;0.25;;;30.90;90.90;;;;;;5067301;28;20136;-78
2022/01/30 04:26:43;;;;;;;2.67;0.73;;;30.80;90.70;;;;;;5057820;28;20036;-79
2022/01/30 04:29:11;;;;;;;3.45;0.93;;;30.80;91.00;;;;;;5067645;28;20028;-77
2022/01/30 04:31:38;;;;;;;2.40;0.40;;;30.70;90.90;;;;;;5061449;28;20028;-81
2022/01/30 04:34:06;;;;;;;4.43;0.70;;;30.60;90.90;;;;;;5068835;28;20065;-79
2022/01/30 04:36:39;;;;;;;2.20;0.28;;;30.50;91.10;;;;;;5068267;28;20535;-77
2022/01/30 04:58:11;;;;;;;3.50;0.93;;;30.90;90.80;;;;;;5052931;28;20567;-77
2022/01/30 05:04:20;;;;;;;;;;;31.00;90.90;;;;;;5057694;28;20036;-79
2022/01/30 05:06:17;;;;;;;3.83;1.65;;;31.00;91.00;;;;;;5056725;28;20014;-80
2022/01/30 05:08:45;;;;;;;3.38;0.82;;;30.90;90.90;;;;;;5061814;28;20471;-79
2022/01/30 05:11:12;;;;;;;2.20;0.60;;;30.90;90.90;;;;;;5065991;28;20036;-78
2022/01/30 05:13:45;;;;;;;4.65;0.40;;;30.80;91.10;;;;;;5069089;28;20071;-79
2022/01/30 05:16:13;;;;;;;4.10;0.68;;;30.90;91.40;;;;;;5059284;28;20041;-80
2022/01/30 05:18:40;;;;;;;2.65;0.32;;;30.90;91.30;;;;;;5066427;28;20031;-77
2022/01/30 05:21:08;;;;;;;2.40;0.45;;;31.00;91.40;;;;;;5060045;28;22069;-77
2022/01/30 05:23:35;;;;;;;3.65;0.47;;;30.90;91.30;;;;;;5060975;28;20056;-78
2022/01/30 05:26:07;;;;;;;2.42;0.47;;;30.80;91.10;;;;;;5071351;28;20032;-78
2022/01/30 05:28:35;;;;;;;3.95;0.82;;;30.80;91.20;;;;;;5068295;28;20475;-79
2022/01/30 05:31:03;;;;;;;3.47;0.40;;;30.70;91.30;;;;;;5053677;28;20040;-78
2022/01/30 05:33:30;;;;;;;3.53;1.02;;;30.80;91.30;;;;;;5060147;28;20017;-81
2022/01/30 05:35:58;;;;;;;3.88;0.80;;;30.80;91.60;;;;;;5051166;28;20033;-81
2022/01/30 05:38:27;;;;;;;1.67;0.38;;;30.80;91.20;;;;;;5055597;28;20025;-77
2022/01/30 05:40:54;;;;;;;3.13;0.88;;;31.00;91.30;;;;;;5069529;28;20052;-76
2022/01/30 05:43:23;;;;;;;3.28;0.70;;;30.90;91.60;;;;;;5066700;28;20567;-75
2022/01/30 05:45:59;;;;;;;3.08;1.05;;;30.80;91.60;;;;;;5058046;28;20044;-79
2022/01/30 05:48:27;;;;;;;4.45;0.30;;;30.60;91.70;;;;;;5063812;28;20020;-76
2022/01/30 05:50:55;;;;;;;3.22;0.65;;;30.50;91.80;;;;;;5070253;28;20502;-79
2022/01/30 05:53:22;;;;;;;3.22;0.75;;;30.40;91.70;;;;;;5061108;28;20049;-80
2022/01/30 05:55:51;;;;;;;2.13;0.50;;;30.30;92.10;;;;;;5064464;28;20098;-79
2022/01/30 05:58:19;;;;;;;3.00;0.60;;;30.30;92.20;;;;;;5064385;28;20024;-78
2022/01/30 06:00:47;;;;;;;2.97;0.73;;;30.30;92.00;;;;;;5070526;28;20355;-79
2022/01/30 06:03:15;;;;;;;6.22;0.80;;;30.30;92.30;;;;;;5067998;28;20051;-79
2022/01/30 06:05:45;;;;;;;6.57;1.42;;;30.30;91.90;;;;;;5056632;28;20032;-80
2022/01/30 06:08:17;;;;;;;3.05;0.43;;;30.20;91.60;;;;;;5065995;28;20143;-81
2022/01/30 06:10:44;;;;;;;2.97;0.50;;;30.10;91.80;;;;;;5068819;28;20069;-78
2022/01/30 06:13:11;;;;;;;2.85;0.38;;;30.10;92.00;;;;;;5058838;28;20040;-79
2022/01/30 06:15:39;;;;;;;3.35;0.55;;;30.00;91.90;;;;;;5066220;28;20028;-79
2022/01/30 06:18:06;;;;;;;3.40;0.60;;;30.10;92.10;;;;;;5068613;28;20052;-78
2022/01/30 06:20:33;;;;;;;4.15;0.70;;;30.40;91.90;;;;;;5064865;28;20116;-77
2022/01/30 06:23:01;;;;;;;2.78;1.30;;;30.50;91.80;;;;;;5068673;28;20043;-80
2022/01/30 06:25:28;;;;;;;4.68;0.68;;;30.40;91.50;;;;;;5065481;28;20074;-81
2022/01/30 06:27:55;;;;;;;2.80;0.55;;;30.30;91.40;;;;;;5056491;28;20028;-77
2022/01/30 06:30:22;;;;;;;3.60;0.82;;;30.20;91.50;;;;;;5055820;28;20017;-79
2022/01/30 06:32:50;;;;;;;3.42;0.43;;;30.10;91.50;;;;;;5066095;28;20099;-78
2022/01/30 06:35:18;;;;;;;2.03;0.40;;;30.10;91.60;;;;;;5053112;28;20384;-78
2022/01/30 06:37:45;;;;;;;5.38;0.80;;;30.00;91.60;;;;;;5068149;28;20400;-78
2022/01/30 06:40:13;;;;;;;1.92;0.98;;;29.90;91.70;;;;;;5066304;28;20049;-77
2022/01/30 06:42:40;;;;;;;6.20;0.65;;;29.80;91.80;;;;;;5052225;28;20084;-77
2022/01/30 06:45:09;;;;;;;3.20;0.63;;;29.80;91.90;;;;;;5069043;28;20021;-78
2022/01/30 06:47:43;;;;;;;3.85;0.90;;;29.80;91.70;;;;;;5067132;28;20799;-78
2022/01/30 06:50:13;;;;;;;7.45;0.93;;;29.90;91.60;;;;;;5066634;28;20080;-78
2022/01/30 06:52:40;;;;;;;1.70;0.40;;;29.80;91.80;;;;;;5058363;28;20053;-79
2022/01/30 06:55:08;;;;;;;2.58;0.70;;;29.90;91.80;;;;;;5068528;28;20140;-79
2022/01/30 06:57:42;;;;;;;3.40;0.40;;;30.00;91.70;;;;;;5055100;28;20104;-79
2022/01/30 07:00:10;;;;;;;4.35;0.30;;;30.20;91.70;;;;;;5067440;28;20127;-78
2022/01/30 07:02:37;;;;;;;4.55;0.88;;;30.30;91.50;;;;;;5062755;28;20021;-81
2022/01/30 07:05:05;;;;;;;3.45;0.50;;;30.10;91.30;;;;;;5068296;28;20039;-78
2022/01/30 07:07:32;;;;;;;5.40;0.77;;;29.90;91.80;;;;;;5051374;28;20025;-76
2022/01/30 07:10:00;;;;;;;5.82;1.40;;;29.80;91.90;;;;;;5067310;28;20033;-75
2022/01/30 07:12:28;;;;;;;3.75;0.77;;;29.80;92.00;;;;;;5051351;28;20029;-79
2022/01/30 07:14:55;;;;;;;4.82;1.30;;;29.80;91.80;;;;;;5050143;28;20071;-76
2022/01/30 07:17:22;;;;;;;5.03;2.42;;;29.60;92.00;;;;;;5067891;28;20040;-76
2022/01/30 07:19:50;;;;;;;5.32;2.38;;;29.50;92.20;;;;;;5069381;28;20035;-75
2022/01/30 07:22:17;;;;;;;5.43;2.28;;;29.50;92.40;;;;;;5065969;28;20037;-77
2022/01/30 07:24:44;;;;;;;2.10;0.65;;;29.60;92.50;;;;;;5071713;28;20031;-74
2022/01/30 07:27:12;;;;;;;2.67;1.20;;;29.50;92.50;;;;;;5067820;28;20119;-79
2022/01/30 07:29:39;;;;;;;7.82;1.83;;;29.40;92.80;;;;;;5070323;28;20078;-77
2022/01/30 07:32:07;;;;;;;7.72;1.25;;;29.40;92.90;;;;;;5071633;28;20060;-80
2022/01/30 07:34:34;;;;;;;1.67;0.50;;;29.30;92.80;;;;;;5069448;28;20044;-76
2022/01/30 07:37:01;;;;;;;1.30;0.47;;;29.20;92.90;;;;;;5069800;28;20060;-76
2022/01/30 07:39:30;;;;;;;5.15;0.40;;;29.00;93.30;;;;;;5055208;28;20025;-79
2022/01/30 07:41:59;;;;;;;3.55;0.60;;;28.80;93.40;;;;;;5067804;28;20059;-77
2022/01/30 07:44:26;;;;;;;2.60;0.65;;;28.70;93.50;;;;;;5069743;28;20025;-79
2022/01/30 07:46:54;;;;;;;2.80;1.13;;;28.70;93.40;;;;;;5068805;28;20040;-77
2022/01/30 07:49:21;;;;;;;3.00;1.02;;;28.70;93.60;;;;;;5072380;28;20436;-75
2022/01/30 07:51:48;;;;;;;1.88;0.82;;;28.60;93.80;;;;;;5064712;28;20041;-79
2022/01/30 07:54:16;;;;;;;3.17;0.60;;;28.60;94.00;;;;;;5060307;28;20033;-79
2022/01/30 07:56:44;;;;;;;5.55;1.20;;;28.50;93.70;;;;;;5052725;28;20116;-79
2022/01/30 07:59:11;;;;;;;1.92;0.50;;;28.40;93.90;;;;;;5066267;28;20029;-77
2022/01/30 08:01:39;;;;;;;5.15;0.50;;;28.20;94.00;;;;;;5071796;28;20021;-78
2022/01/30 08:04:07;;;;;;;6.97;0.93;;;28.10;94.20;;;;;;5063331;28;20119;-78
2022/01/30 08:06:37;;;;;;;3.72;0.70;;;28.00;94.30;;;;;;5063839;28;20138;-79
2022/01/30 08:09:05;;;;;;;5.25;0.50;;;27.90;94.50;;;;;;5066130;28;20060;-78
2022/01/30 08:11:32;;;;;;;3.42;0.80;;;27.80;94.90;;;;;;5065633;28;20044;-80
2022/01/30 08:13:59;;;;;;;4.07;0.70;;;27.70;95.00;;;;;;5069390;28;20113;-77
2022/01/30 08:16:27;;;;;;;3.67;0.28;;;27.70;95.20;;;;;;5059740;28;20316;-79
2022/01/30 08:18:54;;;;;;;3.45;0.50;;;27.60;95.50;;;;;;5063292;28;20047;-80
2022/01/30 08:21:22;;;;;;;3.30;0.68;;;27.40;95.70;;;;;;5052985;28;20037;-78
2022/01/30 08:23:50;;;;;;;1.58;0.50;;;27.40;95.70;;;;;;5067017;28;20107;-80
2022/01/30 08:26:17;;;;;;;2.33;0.52;;;27.30;96.10;;;;;;5052415;28;20032;-76
2022/01/30 08:28:45;;;;;;;4.32;0.52;;;27.20;96.00;;;;;;5057901;28;20098;-80
2022/01/30 08:31:12;;;;;;;2.85;0.50;;;27.10;95.90;;;;;;5067013;28;20120;-79
2022/01/30 08:33:40;;;;;;;1.38;0.52;;;27.10;96.10;;;;;;5062457;28;20108;-79
2022/01/30 08:36:07;;;;;;;3.60;0.80;;;27.00;96.40;;;;;;5070058;28;20505;-76
2022/01/30 08:38:35;;;;;;;3.85;0.82;;;26.90;96.50;;;;;;5070503;28;20124;-79
2022/01/30 08:41:02;;;;;;;2.40;0.40;;;26.80;96.50;;;;;;5069775;28;20533;-80
2022/01/30 08:43:31;;;;;;;4.15;0.65;;;26.80;96.50;;;;;;5068655;28;20029;-79
2022/01/30 08:45:59;;;;;;;2.22;0.52;;;26.60;96.50;;;;;;5065258;28;20032;-80
2022/01/30 08:48:28;;;;;;;6.38;1.02;;;26.50;96.70;;;;;;5055321;28;20056;-79
2022/01/30 08:50:55;;;;;;;3.13;0.47;;;26.50;96.90;;;;;;5052275;28;20037;-79
2022/01/30 08:53:22;;;;;;;2.72;0.47;;;26.40;96.80;;;;;;5051831;28;20471;-79
2022/01/30 08:55:53;;;;;;;6.88;0.50;;;26.40;97.00;;;;;;5052020;28;20052;-80
2022/01/30 08:58:20;;;;;;;3.90;0.73;;;26.30;97.00;;;;;;5051870;28;20434;-80
2022/01/30 09:00:48;;;;;;;2.25;0.50;;;26.20;97.20;;;;;;5071164;28;20354;-79
2022/01/30 09:03:15;;;;;;;2.25;0.50;;;26.20;97.30;;;;;;5062559;28;20108;-78
2022/01/30 09:05:42;;;;;;;2.60;0.60;;;26.20;97.40;;;;;;5070615;28;20503;-78
2022/01/30 09:08:10;;;;;;;3.53;0.60;;;26.20;97.50;;;;;;5059496;28;20481;-79
2022/01/30 09:10:39;;;;;;;4.82;0.80;;;26.20;97.50;;;;;;5068915;28;20102;-80
2022/01/30 09:13:06;;;;;;;4.07;0.60;;;26.20;97.60;;;;;;5069537;28;20025;-77
2022/01/30 09:15:40;;;;;;;5.78;0.77;;;26.00;97.70;;;;;;5069337;28;20089;-78
2022/01/30 09:18:10;;;;;;;1.88;0.50;;;26.00;97.90;;;;;;5067200;28;20499;-79
2022/01/30 09:20:43;;;;;;;3.85;0.50;;;25.90;98.00;;;;;;5059122;28;20028;-81
2022/01/30 09:23:11;;;;;;;5.18;0.70;;;25.90;98.10;;;;;;5069208;28;20028;-78
2022/01/30 09:25:40;;;;;;;13.68;2.20;;;25.90;98.00;;;;;;5071064;28;20124;-79
2022/01/30 09:28:08;;;;;;;4.18;0.55;;;25.90;98.20;;;;;;5068777;28;20031;-78
2022/01/30 09:30:35;;;;;;;4.68;0.68;;;25.80;98.20;;;;;;5059732;28;20037;-79
2022/01/30 09:33:02;;;;;;;3.63;0.93;;;25.80;98.10;;;;;;5056646;28;20028;-78
2022/01/30 09:35:30;;;;;;;3.03;0.50;;;25.80;98.20;;;;;;5070255;28;20369;-78
2022/01/30 09:37:58;;;;;;;1.70;0.65;;;25.80;98.30;;;;;;5069014;28;20024;-78
2022/01/30 09:40:25;;;;;;;5.30;0.95;;;25.80;98.30;;;;;;5068659;28;20075;-77
2022/01/30 09:42:53;;;;;;;5.22;0.40;;;25.70;98.50;;;;;;5058725;28;20437;-78
2022/01/30 09:45:22;;;;;;;3.42;0.77;;;25.70;98.60;;;;;;5062217;28;20037;-78
2022/01/30 09:47:50;;;;;;;3.00;0.77;;;25.70;98.70;;;;;;5059848;28;20024;-78
2022/01/30 09:50:18;;;;;;;2.15;0.80;;;25.70;98.80;;;;;;5070621;28;20373;-77
2022/01/30 09:52:46;;;;;;;4.38;0.80;;;25.70;98.60;;;;;;5065116;28;20039;-78
2022/01/30 09:55:15;;;;;;;4.88;0.57;;;25.60;98.70;;;;;;5065117;28;20024;-82
2022/01/30 09:57:43;;;;;;;2.58;0.45;;;25.60;98.70;;;;;;5053601;28;20044;-75
2022/01/30 10:00:11;;;;;;;3.60;0.60;;;25.60;98.80;;;;;;5063283;28;20028;-76
2022/01/30 10:02:43;;;;;;;6.00;1.42;;;25.50;98.80;;;;;;5051791;28;20040;-79
2022/01/30 10:05:16;;;;;;;2.38;0.80;;;25.50;98.90;;;;;;5069168;28;20522;-80
2022/01/30 10:07:48;;;;;;;4.35;0.68;;;25.60;99.10;;;;;;5067922;28;20115;-76
2022/01/30 10:10:18;;;;;;;3.42;0.60;;;25.60;99.20;;;;;;5067762;28;20041;-79
2022/01/30 10:13:14;;;;;;;2.47;0.68;;;25.50;99.10;;;;;;5056297;28;20040;-80
2022/01/30 10:15:56;;;;;;;4.45;1.83;;;25.50;99.10;;;;;;5054713;28;20162;-79
2022/01/30 10:18:27;;;;;;;3.75;1.20;;;25.50;99.20;;;;;;5074610;28;20068;-78
2022/01/30 10:20:54;;;;;;;6.00;1.83;;;25.50;99.30;;;;;;5060743;28;20464;-78
2022/01/30 10:23:35;;;;;;;2.25;0.40;;;25.50;99.30;;;;;;5055869;28;20041;-78
2022/01/30 10:26:08;;;;;;;1.75;0.70;;;25.60;99.40;;;;;;5054565;28;20025;-80
2022/01/30 10:28:36;;;;;;;3.55;0.60;;;25.50;99.60;;;;;;5064752;28;20033;-80
2022/01/30 10:31:08;;;;;;;5.40;0.57;;;25.50;99.70;;;;;;5069782;28;20044;-79
2022/01/30 10:33:52;;;;;;;3.50;0.75;;;25.50;99.80;;;;;;5067435;28;20024;-78
2022/01/30 10:36:30;;;;;;;3.97;0.60;;;25.50;99.90;;;;;;5069052;28;20070;-79
2022/01/30 10:39:12;;;;;;;4.43;0.70;;;25.50;99.90;;;;;;5069086;28;20442;-78
2022/01/30 10:41:45;;;;;;;4.10;0.57;;;25.40;99.90;;;;;;5054648;28;20056;-78
2022/01/30 10:44:12;;;;;;;4.18;0.77;;;25.30;99.90;;;;;;5062135;28;20115;-78
2022/01/30 10:46:48;;;;;;;4.88;1.63;;;25.30;99.90;;;;;;5065641;28;20025;-79
2022/01/30 10:49:19;;;;;;;4.82;1.00;;;25.30;99.90;;;;;;5067987;28;20495;-79
2022/01/30 10:51:56;;;;;;;3.15;0.95;;;25.20;99.90;;;;;;5067072;28;20367;-78
2022/01/30 10:54:26;;;;;;;4.00;1.13;;;25.20;99.90;;;;;;5065832;28;20035;-81
2022/01/30 10:57:08;;;;;;;9.90;1.30;;;25.20;99.90;;;;;;5073409;28;20028;-79
2022/01/30 10:59:42;;;;;;;7.22;0.68;;;25.20;99.90;;;;;;5070537;28;20024;-77
2022/01/30 11:02:17;;;;;;;5.70;1.63;;;25.30;99.90;;;;;;5061520;28;20028;-80
2022/01/30 11:04:47;;;;;;;3.77;0.60;;;25.20;99.90;;;;;;5053579;28;20025;-79
2022/01/30 11:07:21;;;;;;;9.00;1.05;;;25.20;99.90;;;;;;5053851;28;20032;-78
2022/01/30 11:10:08;;;;;;;3.35;0.75;;;25.20;99.90;;;;;;5072412;28;20090;-80
2022/01/30 11:12:56;;;;;;;8.23;0.80;;;25.20;99.90;;;;;;5067270;28;20039;-80
2022/01/30 11:18:00;;;;;;;1.13;0.50;;;25.00;99.90;;;;;;5056935;28;20033;-79
2022/01/30 11:20:29;;;;;;;4.13;0.82;;;25.00;99.90;;;;;;5072921;28;20104;-80
2022/01/30 11:23:03;;;;;;;4.13;0.80;;;25.00;99.90;;;;;;5068796;28;20028;-81
2022/01/30 11:25:35;;;;;;;2.78;0.50;;;24.90;99.90;;;;;;5072741;28;20024;-79
2022/01/30 11:28:04;;;;;;;3.05;0.75;;;24.90;99.90;;;;;;5066841;28;20463;-79
2022/01/30 11:30:34;;;;;;;4.88;1.45;;;24.90;99.90;;;;;;5059567;28;20439;-80
2022/01/30 11:33:02;;;;;;;5.07;1.35;;;24.90;99.90;;;;;;5062470;28;20071;-80
2022/01/30 11:35:30;;;;;;;8.60;1.60;;;24.90;99.90;;;;;;5053435;28;20041;-78
2022/01/30 11:37:58;;;;;;;6.40;0.98;;;24.90;99.90;;;;;;5066693;28;20089;-80
2022/01/30 11:40:25;;;;;;;5.28;0.60;;;24.90;99.90;;;;;;5072603;28;20059;-79
2022/01/30 11:42:53;;;;;;;2.28;0.50;;;24.80;99.90;;;;;;5071712;28;20565;-80
2022/01/30 11:45:25;;;;;;;2.83;0.63;;;24.80;99.90;;;;;;5067365;28;20036;-80
2022/01/30 11:48:03;;;;;;;4.45;0.50;;;24.70;99.90;;;;;;5066730;28;20021;-78
2022/01/30 11:50:35;;;;;;;9.05;2.33;;;24.70;99.90;;;;;;5071620;28;20040;-76
2022/01/30 11:53:07;;;;;;;6.10;1.42;;;24.70;99.90;;;;;;5065063;28;20025;-78
2022/01/30 11:55:43;;;;;;;4.32;0.60;;;24.70;99.90;;;;;;5071036;28;20601;-77
2022/01/30 11:58:41;;;;;;;6.00;0.85;;;24.60;99.90;;;;;;5055342;28;20108;-77
2022/01/30 12:01:27;;;;;;;4.28;1.17;;;24.60;99.90;;;;;;5056993;28;20101;-79
2022/01/30 12:04:01;;;;;;;4.05;0.60;;;24.50;99.90;;;;;;5054673;28;20048;-78
2022/01/30 12:06:31;;;;;;;3.30;0.93;;;24.50;99.90;;;;;;5067678;28;20098;-77
2022/01/30 12:09:00;;;;;;;3.35;1.13;;;24.50;99.90;;;;;;5055098;28;20021;-75
2022/01/30 12:11:47;;;;;;;5.60;1.05;;;24.50;99.90;;;;;;5066418;28;20036;-79
2022/01/30 12:14:20;;;;;;;4.18;0.77;;;24.40;99.90;;;;;;5067059;28;20075;-78
2022/01/30 12:16:56;;;;;;;3.45;1.00;;;24.40;99.90;;;;;;5054729;28;20116;-79
2022/01/30 12:19:32;;;;;;;2.42;0.80;;;24.40;99.90;;;;;;5065315;28;20021;-79
2022/01/30 12:22:19;;;;;;;6.28;0.90;;;24.30;99.90;;;;;;5056225;28;20393;-78
2022/01/30 12:24:48;;;;;;;4.22;1.35;;;24.30;99.90;;;;;;5071121;28;20121;-77
2022/01/30 12:27:16;;;;;;;2.70;0.50;;;24.30;99.90;;;;;;5072450;28;20082;-78
2022/01/30 12:29:47;;;;;;;6.70;0.95;;;24.20;99.90;;;;;;5071395;28;20024;-77
2022/01/30 12:32:23;;;;;;;3.92;0.40;;;24.20;99.90;;;;;;5072579;28;20083;-76
2022/01/30 12:34:56;;;;;;;7.35;0.77;;;24.20;99.90;;;;;;5072499;28;20035;-76
2022/01/30 12:37:26;;;;;;;4.50;0.47;;;24.20;99.90;;;;;;5069711;28;20029;-78
2022/01/30 12:39:54;;;;;;;3.47;0.60;;;24.10;99.90;;;;;;5068356;28;20032;-75
2022/01/30 12:42:24;;;;;;;3.92;0.55;;;24.10;99.90;;;;;;5060593;28;20080;-77
2022/01/30 12:44:58;;;;;;;5.00;1.02;;;24.00;99.90;;;;;;5068601;28;20099;-76
2022/01/30 12:47:26;;;;;;;5.13;0.77;;;24.00;99.90;;;;;;5073003;28;20356;-79
2022/01/30 12:49:57;;;;;;;8.05;1.02;;;23.90;99.90;;;;;;5075683;28;20139;-76
2022/01/30 12:52:36;;;;;;;7.00;0.98;;;23.90;99.90;;;;;;5063163;28;20025;-78
2022/01/30 12:55:12;;;;;;;6.90;1.27;;;23.80;99.90;;;;;;5058305;28;20033;-76
2022/01/30 12:57:42;;;;;;;5.03;1.02;;;23.80;99.90;;;;;;5068298;28;20820;-77
2022/01/30 13:00:13;;;;;;;9.27;0.98;;;23.80;99.90;;;;;;5067613;28;20048;-77
2022/01/30 13:03:15;;;;;;;2.63;0.65;;;23.70;99.90;;;;;;5057604;28;20557;-78
2022/01/30 13:05:44;;;;;;;6.78;1.00;;;23.70;99.90;;;;;;5055506;28;20045;-76
2022/01/30 13:08:11;;;;;;;5.18;0.90;;;23.70;99.90;;;;;;5062252;28;20036;-78
2022/01/30 13:10:39;;;;;;;2.20;0.50;;;23.60;99.90;;;;;;5054396;28;20047;-75
2022/01/30 13:13:08;;;;;;;3.90;0.50;;;23.60;99.90;;;;;;5059633;28;20104;-77
2022/01/30 13:15:38;;;;;;;4.13;0.98;;;23.60;99.90;;;;;;5062696;28;20539;-78
2022/01/30 13:18:06;;;;;;;6.82;1.30;;;23.60;99.90;;;;;;5064992;28;20111;-75
2022/01/30 13:20:33;;;;;;;2.70;1.67;;;23.50;99.90;;;;;;5064341;28;20021;-77
2022/01/30 13:23:00;;;;;;;5.32;0.85;;;23.50;99.90;;;;;;5058120;28;20040;-78
2022/01/30 13:25:28;;;;;;;2.83;0.50;;;23.50;99.90;;;;;;5060695;28;20036;-76
2022/01/30 13:27:55;;;;;;;3.63;0.63;;;23.50;99.90;;;;;;5054897;28;20377;-76
2022/01/30 13:30:31;;;;;;;3.97;0.68;;;23.40;99.90;;;;;;5058973;28;20042;-77
2022/01/30 13:32:58;;;;;;;2.33;0.60;;;23.40;99.90;;;;;;5066259;28;20043;-78
2022/01/30 13:35:31;;;;;;;2.95;0.95;;;23.30;99.90;;;;;;5065473;28;20150;-77
2022/01/30 13:38:05;;;;;;;3.72;0.95;;;23.30;99.90;;;;;;5064490;28;20117;-76
2022/01/30 13:40:42;;;;;;;4.53;0.60;;;23.30;99.90;;;;;;5056808;28;20040;-75
2022/01/30 13:43:19;;;;;;;4.80;0.80;;;23.30;99.90;;;;;;5059542;28;20455;-77
2022/01/30 13:48:19;;;;;;;4.88;1.42;;;23.20;99.90;;;;;;5066576;28;20024;-78
2022/01/30 13:50:54;;;;;;;3.78;0.50;;;23.20;99.90;;;;;;5066131;28;20041;-77
2022/01/30 13:53:21;;;;;;;4.82;0.75;;;23.20;99.90;;;;;;5060213;28;20134;-79
2022/01/30 13:55:53;;;;;;;6.28;1.20;;;23.20;99.90;;;;;;5063762;28;20037;-75
2022/01/30 13:58:23;;;;;;;4.20;0.95;;;23.20;99.90;;;;;;5065520;28;20027;-77
2022/01/30 14:00:50;;;;;;;6.30;0.93;;;23.20;99.90;;;;;;5066923;28;20081;-75
2022/01/30 14:03:26;;;;;;;6.88;0.98;;;23.20;99.90;;;;;;5062279;28;20017;-77
2022/01/30 14:05:54;;;;;;;5.47;0.57;;;23.20;99.90;;;;;;5068965;28;20486;-75